Time;durP1;ratioP1;P1;durP2;ratioP2;P2;SDS_P1;SDS_P2;PMS_P1;PMS_P2;Temp;Humidity;BMP_temperature;BMP_pressure;BME280_temperature;BME280_humidity;BME280_pressure;Samples;Min_cycle;Max_cycle;Signal;HPM_P1;HPM_P2
2022/07/20 00:02:14;;;;;;;10.13;7.00;;;;;;;28.08;32.89;97430.25;5071813;28;20186;-70
2022/07/20 00:04:39;;;;;;;7.20;5.70;;;;;;;28.04;32.83;97432.63;5072174;28;20174;-71
2022/07/20 00:07:04;;;;;;;6.43;5.80;;;;;;;28.01;32.81;97430.47;5071488;28;20197;-69
2022/07/20 00:12:14;;;;;;;10.17;6.93;;;;;;;27.92;33.16;97423.94;5072356;28;20210;-71
2022/07/20 00:14:39;;;;;;;11.43;8.03;;;;;;;27.88;33.02;97431.72;5070427;28;20461;-69
2022/07/20 00:17:05;;;;;;;11.13;7.70;;;;;;;27.86;33.07;97423.09;5072875;28;20202;-70
2022/07/20 00:19:30;;;;;;;11.50;6.97;;;;;;;27.78;33.57;97421.72;5066239;28;20181;-69
2022/07/20 00:21:56;;;;;;;11.60;8.10;;;;;;;27.75;33.58;97428.41;5073145;28;20257;-70
2022/07/20 00:24:21;;;;;;;16.33;13.53;;;;;;;27.75;33.59;97428.41;5071214;28;20206;-69
2022/07/20 00:26:47;;;;;;;15.37;6.63;;;;;;;27.71;33.70;97430.00;5076877;28;20244;-69
2022/07/20 00:29:12;;;;;;;9.03;7.30;;;;;;;27.63;33.91;97422.41;5076649;28;20187;-69
2022/07/20 00:31:37;;;;;;;14.63;6.40;;;;;;;27.54;34.07;97416.69;5071637;28;20174;-70
2022/07/20 00:34:03;;;;;;;8.97;6.20;;;;;;;27.46;34.16;97419.84;5068023;28;20299;-69
2022/07/20 00:36:29;;;;;;;18.20;8.17;;;;;;;27.35;34.17;97418.91;5079292;28;20202;-70
2022/07/20 00:38:54;;;;;;;9.27;7.80;;;;;;;27.41;34.12;97425.97;5071318;28;20185;-69
2022/07/20 00:41:20;;;;;;;10.30;7.03;;;;;;;27.40;34.19;97416.28;5070835;28;20273;-70
2022/07/20 00:44:00;;;;;;;12.70;6.50;;;;;;;27.37;34.36;97421.38;5078136;28;20207;-69
2022/07/20 00:46:28;;;;;;;10.10;6.97;;;;;;;27.34;34.40;97420.00;5070171;28;20629;-71
2022/07/20 00:48:53;;;;;;;7.20;6.20;;;;;;;27.30;34.46;97416.19;5064762;28;20949;-70
2022/07/20 00:51:19;;;;;;;13.50;6.87;;;;;;;27.29;34.68;97418.06;5064426;28;20417;-70
2022/07/20 00:53:46;;;;;;;11.10;7.10;;;;;;;27.24;34.65;97419.91;5063340;28;20273;-69
2022/07/20 00:56:11;;;;;;;11.70;6.60;;;;;;;27.18;34.48;97416.34;5069202;28;20202;-70
2022/07/20 00:58:37;;;;;;;12.20;9.17;;;;;;;27.11;34.86;97427.31;5071497;28;20447;-70
2022/07/20 01:01:02;;;;;;;15.13;9.13;;;;;;;27.07;35.10;97420.00;5071148;28;20203;-71
2022/07/20 01:03:29;;;;;;;11.27;8.20;;;;;;;27.03;34.90;97425.09;5067132;28;20617;-68
2022/07/20 01:05:55;;;;;;;8.57;6.70;;;;;;;26.99;35.13;97426.66;5065131;28;20212;-70
2022/07/20 01:08:20;;;;;;;13.53;8.20;;;;;;;26.90;35.23;97429.00;5069100;28;20943;-69
2022/07/20 01:10:46;;;;;;;13.03;6.90;;;;;;;26.87;35.45;97421.44;5073743;28;20520;-70
2022/07/20 01:13:12;;;;;;;8.73;6.47;;;;;;;26.82;35.44;97427.56;5078533;28;20292;-69
2022/07/20 01:15:37;;;;;;;12.00;6.20;;;;;;;26.78;35.56;97422.91;5078004;28;20539;-70
2022/07/20 01:18:03;;;;;;;8.30;6.10;;;;;;;26.74;35.62;97424.50;5072092;28;20188;-70
2022/07/20 01:20:29;;;;;;;10.93;5.50;;;;;;;26.74;35.43;97427.97;5071831;28;20189;-70
2022/07/20 01:22:55;;;;;;;6.93;5.53;;;;;;;26.69;35.29;97433.31;5070693;28;20202;-69
2022/07/20 01:25:20;;;;;;;9.03;6.30;;;;;;;26.67;35.65;97414.72;5065258;28;20958;-69
2022/07/20 01:27:46;;;;;;;9.00;6.00;;;;;;;26.64;35.98;97422.50;5079246;28;20252;-71
2022/07/20 01:30:12;;;;;;;6.83;6.00;;;;;;;26.60;36.15;97422.19;5069279;28;20186;-69
2022/07/20 01:32:37;;;;;;;7.87;5.67;;;;;;;26.60;36.00;97418.66;5065328;28;20214;-69
2022/07/20 01:35:03;;;;;;;12.30;6.37;;;;;;;26.52;35.94;97417.25;5069778;28;20208;-70
2022/07/20 01:37:30;;;;;;;8.43;5.73;;;;;;;26.49;36.01;97418.56;5057036;28;20293;-70
2022/07/20 01:39:56;;;;;;;7.73;6.30;;;;;;;26.47;36.13;97418.00;5064028;28;20511;-70
2022/07/20 01:42:21;;;;;;;12.13;6.47;;;;;;;26.47;36.43;97418.00;5076204;28;20641;-70
2022/07/20 01:44:47;;;;;;;9.70;6.77;;;;;;;26.46;36.15;97416.38;5067937;28;20182;-71
2022/07/20 01:47:12;;;;;;;8.43;5.93;;;;;;;26.47;36.50;97411.81;5069600;28;20186;-69
2022/07/20 01:49:38;;;;;;;8.67;6.30;;;;;;;26.45;36.48;97422.81;5069402;28;20186;-70
2022/07/20 01:52:03;;;;;;;12.70;5.83;;;;;;;26.44;36.15;97412.31;5054612;28;20759;-70
2022/07/20 01:54:29;;;;;;;8.20;6.53;;;;;;;26.39;36.70;97413.06;5063779;28;20198;-69
2022/07/20 01:56:54;;;;;;;12.37;5.57;;;;;;;26.31;36.71;97421.56;5078438;28;20259;-69
2022/07/20 01:59:20;;;;;;;11.40;6.20;;;;;;;26.27;36.87;97425.81;5070988;28;20604;-70
2022/07/20 02:01:45;;;;;;;11.53;6.07;;;;;;;26.22;36.78;97421.19;5067358;28;20206;-69
2022/07/20 02:04:11;;;;;;;11.30;6.33;;;;;;;26.24;36.97;97431.66;5069754;28;20576;-69
2022/07/20 02:06:36;;;;;;;8.00;5.73;;;;;;;26.20;36.70;97423.28;5069473;28;20312;-70
2022/07/20 02:09:02;;;;;;;7.70;5.90;;;;;;;26.18;36.95;97428.94;5069247;28;20273;-69
2022/07/20 02:11:28;;;;;;;7.37;5.93;;;;;;;26.17;37.15;97429.16;5071523;28;20187;-69
2022/07/20 02:13:53;;;;;;;8.70;6.10;;;;;;;26.18;36.89;97420.88;5071281;28;20567;-70
2022/07/20 02:16:19;;;;;;;8.70;6.20;;;;;;;26.15;36.98;97426.72;5069645;28;20261;-70
2022/07/20 02:18:48;;;;;;;9.53;6.57;;;;;;;26.07;37.25;97424.44;5074698;28;20198;-69
2022/07/20 02:21:15;;;;;;;14.87;6.13;;;;;;;26.00;37.29;97423.78;5073851;28;20651;-69
2022/07/20 02:23:40;;;;;;;8.63;5.70;;;;;;;25.98;37.49;97424.06;5073817;28;20519;-69
2022/07/20 02:26:06;;;;;;;10.47;6.00;;;;;;;25.94;37.63;97425.59;5085526;28;20506;-69
2022/07/20 02:28:32;;;;;;;8.27;6.07;;;;;;;25.91;37.87;97420.72;5076092;28;20196;-70
2022/07/20 02:30:57;;;;;;;9.30;6.33;;;;;;;25.94;37.81;97424.78;5073056;28;20193;-69
2022/07/20 02:33:22;;;;;;;8.93;6.07;;;;;;;25.89;37.83;97426.34;5072961;28;20226;-70
2022/07/20 02:35:48;;;;;;;7.93;6.33;;;;;;;25.85;38.12;97422.50;5073409;28;20683;-72
2022/07/20 02:38:13;;;;;;;9.13;5.87;;;;;;;25.80;37.94;97417.09;5072728;28;20289;-69
2022/07/20 02:40:39;;;;;;;7.07;5.80;;;;;;;25.78;38.01;97421.88;5073583;28;20182;-70
2022/07/20 02:43:05;;;;;;;9.77;6.60;;;;;;;25.78;38.35;97419.19;5081607;28;20202;-70
2022/07/20 02:45:31;;;;;;;6.50;5.90;;;;;;;25.70;38.32;97423.09;5073618;28;20584;-69
2022/07/20 02:48:02;;;;;;;7.23;6.23;;;;;;;25.68;38.36;97414.47;5072723;28;20651;-69
2022/07/20 02:50:33;;;;;;;8.30;5.90;;;;;;;25.66;38.33;97423.84;5073021;28;20425;-69
2022/07/20 02:52:59;;;;;;;10.50;5.83;;;;;;;25.66;38.22;97426.53;5070774;28;20453;-70
2022/07/20 02:55:25;;;;;;;8.03;5.93;;;;;;;25.58;38.34;97412.44;5073109;28;20468;-69
2022/07/20 02:57:50;;;;;;;10.07;6.20;;;;;;;25.60;38.51;97421.06;5073127;28;20428;-70
2022/07/20 03:00:16;;;;;;;7.70;6.07;;;;;;;25.63;38.11;97417.09;5073913;28;20626;-70
2022/07/20 03:02:41;;;;;;;9.20;5.93;;;;;;;25.50;38.71;97426.28;5055214;28;20300;-69
2022/07/20 03:05:07;;;;;;;7.97;6.20;;;;;;;25.45;38.97;97428.88;5072750;28;20268;-70
2022/07/20 03:07:33;;;;;;;12.67;5.80;;;;;;;25.45;38.64;97424.31;5072581;28;20190;-70
2022/07/20 03:09:58;;;;;;;11.10;6.80;;;;;;;25.49;38.76;97435.38;5075459;28;20904;-70
2022/07/20 03:12:24;;;;;;;11.20;6.50;;;;;;;25.51;38.48;97430.59;5069595;28;20239;-70
2022/07/20 03:14:49;;;;;;;9.60;6.77;;;;;;;25.51;38.73;97432.47;5073090;28;20231;-70
2022/07/20 03:17:16;;;;;;;7.20;6.10;;;;;;;25.49;38.77;97424.66;5073866;28;20206;-69
2022/07/20 03:19:42;;;;;;;7.73;6.47;;;;;;;25.50;38.94;97431.63;5071705;28;20190;-70
2022/07/20 03:22:07;;;;;;;8.10;6.23;;;;;;;25.48;39.16;97431.06;5073800;28;20433;-70
2022/07/20 03:24:33;;;;;;;13.13;5.67;;;;;;;25.39;39.13;97430.63;5072914;28;20185;-69
2022/07/20 03:26:58;;;;;;;6.60;5.87;;;;;;;25.36;39.37;97431.13;5076161;28;20178;-69
2022/07/20 03:29:24;;;;;;;9.27;6.47;;;;;;;25.30;39.14;97438.28;5070131;28;20214;-70
2022/07/20 03:31:49;;;;;;;8.50;6.70;;;;;;;25.25;39.51;97434.69;5069370;28;20557;-69
2022/07/20 03:34:15;;;;;;;14.90;6.10;;;;;;;25.29;39.25;97425.91;5065995;28;20275;-71
2022/07/20 03:36:40;;;;;;;8.80;6.17;;;;;;;25.25;39.37;97435.50;5071693;28;20301;-69
2022/07/20 03:39:06;;;;;;;9.07;6.13;;;;;;;25.23;39.70;97432.22;5072111;28;20641;-69
2022/07/20 03:41:31;;;;;;;7.83;6.60;;;;;;;25.24;39.80;97425.00;5048786;28;20273;-71
2022/07/20 03:43:56;;;;;;;9.83;7.03;;;;;;;25.28;39.49;97435.00;5066652;28;20221;-70
2022/07/20 03:46:22;;;;;;;12.07;6.10;;;;;;;25.24;39.92;97430.38;5071236;28;20183;-71
2022/07/20 03:48:47;;;;;;;9.47;6.40;;;;;;;25.17;39.60;97427.03;5070744;28;20622;-71
2022/07/20 03:51:13;;;;;;;10.10;6.70;;;;;;;25.14;39.75;97431.81;5070358;28;20269;-70
2022/07/20 03:53:38;;;;;;;8.63;6.73;;;;;;;25.08;39.94;97423.91;5064692;28;20206;-70
2022/07/20 03:56:04;;;;;;;12.07;6.90;;;;;;;25.08;39.82;97426.59;5071209;28;20198;-71
2022/07/20 03:58:29;;;;;;;12.80;6.20;;;;;;;25.08;39.96;97423.91;5071791;28;20185;-71
2022/07/20 04:00:55;;;;;;;9.13;6.30;;;;;;;25.12;40.26;97417.03;5068599;28;20235;-70
2022/07/20 04:03:21;;;;;;;8.23;6.03;;;;;;;25.06;40.35;97428.72;5070094;28;20595;-70
2022/07/20 04:05:46;;;;;;;10.67;7.00;;;;;;;25.00;40.58;97427.81;5071561;28;20554;-70
2022/07/20 04:08:12;;;;;;;9.17;6.30;;;;;;;24.99;40.62;97427.00;5070526;28;20269;-70
2022/07/20 04:10:37;;;;;;;20.13;6.57;;;;;;;25.05;40.15;97427.09;5073634;28;20270;-71
2022/07/20 04:13:03;;;;;;;9.67;6.33;;;;;;;25.08;40.27;97427.41;5065255;28;20368;-70
2022/07/20 04:15:29;;;;;;;8.87;6.83;;;;;;;25.02;40.50;97430.25;5063072;28;20210;-70
2022/07/20 04:17:54;;;;;;;17.33;6.50;;;;;;;24.95;40.79;97435.75;5068885;28;20842;-70
2022/07/20 04:20:20;;;;;;;7.90;6.80;;;;;;;24.96;40.85;97432.81;5071594;28;20675;-70
2022/07/20 04:22:45;;;;;;;11.20;7.03;;;;;;;25.02;40.61;97431.03;5071237;28;20281;-70
2022/07/20 04:25:11;;;;;;;11.23;7.53;;;;;;;25.08;40.42;97434.63;5070586;28;20186;-71
2022/07/20 04:27:36;;;;;;;15.27;6.47;;;;;;;25.06;40.88;97437.56;5067495;28;20193;-70
2022/07/20 04:30:03;;;;;;;12.87;6.37;;;;;;;25.04;41.20;97433.50;5073556;28;20187;-70
2022/07/20 04:32:29;;;;;;;8.87;6.70;;;;;;;25.02;41.11;97435.59;5070307;28;20190;-69
2022/07/20 04:34:54;;;;;;;12.07;7.10;;;;;;;25.04;41.29;97431.63;5071162;28;20447;-69
2022/07/20 04:37:20;;;;;;;13.10;7.17;;;;;;;25.06;41.20;97436.75;5069986;28;20206;-70
2022/07/20 04:39:45;;;;;;;11.77;6.87;;;;;;;25.10;41.34;97433.34;5069999;28;20548;-69
2022/07/20 04:42:11;;;;;;;11.47;7.60;;;;;;;25.10;41.09;97435.22;5062589;28;20634;-69
2022/07/20 04:44:36;;;;;;;9.43;6.80;;;;;;;25.15;41.18;97446.03;5070535;28;20197;-70
2022/07/20 04:47:01;;;;;;;15.50;6.73;;;;;;;25.14;41.58;97433.69;5070505;28;20174;-69
2022/07/20 04:49:27;;;;;;;8.40;6.60;;;;;;;25.16;41.77;97439.63;5066964;28;20187;-70
2022/07/20 04:51:52;;;;;;;9.10;6.70;;;;;;;25.21;41.73;97434.34;5057710;28;20187;-70
2022/07/20 04:54:18;;;;;;;9.17;6.10;;;;;;;25.29;41.32;97431.28;5063757;28;20206;-70
2022/07/20 04:56:44;;;;;;;8.03;6.20;;;;;;;25.33;41.48;97431.59;5058712;28;20203;-69
2022/07/20 04:59:10;;;;;;;12.60;6.50;;;;;;;25.37;41.51;97427.38;5063916;28;20213;-69
2022/07/20 05:01:35;;;;;;;8.33;6.60;;;;;;;25.40;41.83;97426.06;5065474;28;20919;-70
2022/07/20 05:04:01;;;;;;;11.47;7.10;;;;;;;25.46;42.13;97430.50;5060798;28;20202;-69
2022/07/20 05:06:26;;;;;;;11.30;7.17;;;;;;;25.49;41.81;97430.00;5061006;28;20265;-70
2022/07/20 05:08:52;;;;;;;11.37;6.87;;;;;;;25.54;42.01;97421.22;5060064;28;20179;-70
2022/07/20 05:11:17;;;;;;;10.97;6.60;;;;;;;25.57;42.19;97421.56;5076659;28;20186;-68
2022/07/20 05:13:43;;;;;;;13.27;7.27;;;;;;;25.60;41.87;97429.13;5052878;28;20206;-70
2022/07/20 05:16:09;;;;;;;9.93;6.90;;;;;;;25.65;41.93;97423.00;5055225;28;20210;-70
2022/07/20 05:18:34;;;;;;;12.37;7.00;;;;;;;25.72;42.15;97429.03;5070223;28;20189;-69
2022/07/20 05:21:00;;;;;;;13.43;7.57;;;;;;;25.79;42.04;97428.88;5059629;28;20425;-70
2022/07/20 05:23:26;;;;;;;8.67;6.87;;;;;;;25.84;41.30;97423.56;5057596;28;20612;-70
2022/07/20 05:25:51;;;;;;;17.43;7.13;;;;;;;25.92;40.87;97428.53;5061936;28;20258;-69
2022/07/20 05:28:20;;;;;;;15.57;6.40;;;;;;;26.02;40.73;97438.59;5069051;28;20235;-69
2022/07/20 05:30:50;;;;;;;12.00;7.20;;;;;;;26.08;41.08;97434.13;5058389;28;20201;-69
2022/07/20 05:33:16;;;;;;;8.67;6.20;;;;;;;26.10;39.79;97428.50;5061784;28;20551;-69
2022/07/20 05:35:41;;;;;;;9.63;6.20;;;;;;;26.14;39.13;97435.03;5060295;28;20551;-70
2022/07/20 05:38:07;;;;;;;15.30;6.70;;;;;;;26.20;39.08;97429.50;5053323;28;20429;-69
2022/07/20 05:40:32;;;;;;;11.00;5.63;;;;;;;26.10;39.02;97429.34;5060926;28;20190;-69
2022/07/20 05:42:58;;;;;;;12.83;6.50;;;;;;;26.33;38.80;97433.69;5066856;28;20557;-69
2022/07/20 05:45:23;;;;;;;9.70;6.07;;;;;;;26.50;38.25;97440.88;5069665;28;20554;-70
2022/07/20 05:47:49;;;;;;;13.63;6.70;;;;;;;26.48;38.58;97441.09;5070211;28;20179;-70
2022/07/20 05:50:14;;;;;;;14.70;6.63;;;;;;;26.64;38.26;97450.19;5069129;28;20265;-69
2022/07/20 05:52:40;;;;;;;15.13;7.10;;;;;;;26.74;38.09;97449.47;5064456;28;20210;-69
2022/07/20 05:55:06;;;;;;;13.50;6.37;;;;;;;26.82;37.34;97449.09;5065280;28;20187;-70
2022/07/20 05:57:31;;;;;;;11.70;6.27;;;;;;;26.99;37.47;97450.84;5057010;28;20237;-70
2022/07/20 05:59:57;;;;;;;19.83;6.47;;;;;;;27.01;37.30;97453.31;5056430;28;20468;-69
2022/07/20 06:02:22;;;;;;;8.13;5.47;;;;;;;27.19;37.35;97447.56;5057606;28;20266;-68
2022/07/20 06:04:48;;;;;;;15.80;6.73;;;;;;;27.37;37.63;97449.06;5056317;28;20247;-69
2022/07/20 06:07:13;;;;;;;16.43;6.27;;;;;;;27.51;37.32;97459.44;5057353;28;20710;-69
2022/07/20 06:09:38;;;;;;;10.40;6.20;;;;;;;27.66;36.97;97456.09;5068998;28;20269;-68
2022/07/20 06:12:04;;;;;;;10.07;5.80;;;;;;;27.80;36.65;97453.75;5060178;28;20236;-69
2022/07/20 06:14:30;;;;;;;11.03;5.50;;;;;;;27.93;36.63;97458.69;5071534;28;20213;-68
2022/07/20 06:16:55;;;;;;;12.37;6.43;;;;;;;28.02;35.94;97450.94;5064005;28;20222;-69
2022/07/20 06:19:21;;;;;;;17.53;6.50;;;;;;;28.16;35.83;97446.75;5070961;28;20217;-69
2022/07/20 06:21:46;;;;;;;18.47;6.40;;;;;;;28.21;35.27;97459.44;5066429;28;20686;-69
2022/07/20 06:24:12;;;;;;;13.80;7.37;;;;;;;28.02;35.21;97453.63;5064975;28;20206;-68
2022/07/20 06:26:37;;;;;;;6.83;5.63;;;;;;;28.17;34.89;97458.34;5076030;28;20183;-69
2022/07/20 06:29:02;;;;;;;12.33;6.00;;;;;;;28.12;35.09;97459.13;5066638;28;20328;-69
2022/07/20 06:31:28;;;;;;;12.43;6.30;;;;;;;28.39;34.41;97470.84;5068826;28;20629;-69
2022/07/20 06:33:53;;;;;;;13.40;6.40;;;;;;;28.50;34.26;97485.97;5059339;28;20250;-68
2022/07/20 06:36:19;;;;;;;8.07;6.37;;;;;;;28.63;34.39;97485.50;5050942;28;20199;-70
2022/07/20 06:38:45;;;;;;;12.00;6.70;;;;;;;28.76;34.03;97478.88;5067231;28;20228;-69
2022/07/20 06:41:11;;;;;;;9.10;6.33;;;;;;;28.91;34.33;97488.09;5065478;28;20187;-69
2022/07/20 06:43:36;;;;;;;12.17;6.43;;;;;;;29.07;34.49;97481.63;5058337;28;20206;-70
2022/07/20 06:46:01;;;;;;;15.50;6.50;;;;;;;29.25;34.60;97474.94;5072081;28;20182;-69
2022/07/20 06:48:27;;;;;;;13.03;6.40;;;;;;;29.37;33.11;97479.28;5075748;28;20864;-68
2022/07/20 06:50:52;;;;;;;13.40;6.03;;;;;;;29.48;33.43;97486.34;5066857;28;20190;-69
2022/07/20 06:53:18;;;;;;;8.03;6.10;;;;;;;29.67;33.45;97477.69;5071646;28;20198;-70
2022/07/20 06:55:43;;;;;;;20.63;6.50;;;;;;;29.83;32.89;97482.03;5072956;28;20501;-69
2022/07/20 06:58:09;;;;;;;11.03;6.43;;;;;;;30.01;32.66;97487.97;5072921;28;20181;-69
2022/07/20 07:00:34;;;;;;;11.57;7.03;;;;;;;30.18;32.78;97474.97;5072205;28;20187;-69
2022/07/20 07:03:00;;;;;;;20.50;6.37;;;;;;;30.34;32.31;97464.13;5070211;28;20417;-69
2022/07/20 07:05:25;;;;;;;16.03;6.30;;;;;;;30.50;32.60;97473.78;5058973;28;20198;-69
2022/07/20 07:07:51;;;;;;;13.63;6.53;;;;;;;30.67;32.83;97488.13;5059809;28;20676;-71
2022/07/20 07:10:16;;;;;;;10.40;6.80;;;;;;;30.73;32.02;97481.59;5067936;28;20187;-68
2022/07/20 07:12:42;;;;;;;15.53;6.60;;;;;;;30.90;31.75;97483.94;5069718;28;20289;-69
2022/07/20 07:15:08;;;;;;;10.80;6.07;;;;;;;31.06;31.47;97477.38;5064375;28;20274;-70
2022/07/20 07:17:33;;;;;;;10.57;6.77;;;;;;;31.21;31.47;97481.91;5065072;28;20194;-71
2022/07/20 07:19:59;;;;;;;7.43;6.73;;;;;;;31.37;31.54;97482.63;5072004;28;20758;-69
2022/07/20 07:22:26;;;;;;;15.40;7.00;;;;;;;31.52;30.89;97484.41;5060664;28;20190;-68
2022/07/20 07:24:52;;;;;;;7.23;6.50;;;;;;;31.68;30.86;97490.50;5064758;28;20182;-69
2022/07/20 07:27:17;;;;;;;6.73;6.00;;;;;;;31.88;30.73;97479.81;5064879;28;21000;-68
2022/07/20 07:29:43;;;;;;;6.93;5.93;;;;;;;32.04;30.19;97475.03;5065083;28;20178;-68
2022/07/20 07:32:08;;;;;;;10.63;6.10;;;;;;;32.19;29.98;97469.47;5062738;28;20186;-69
2022/07/20 07:34:34;;;;;;;9.33;6.23;;;;;;;32.34;30.13;97465.00;5058798;28;20580;-67
2022/07/20 07:36:59;;;;;;;8.43;6.10;;;;;;;32.48;29.94;97458.59;5065695;28;20202;-70
2022/07/20 07:39:25;;;;;;;5.83;5.33;;;;;;;32.63;29.29;97464.94;5058251;28;20182;-71
2022/07/20 07:41:50;;;;;;;9.17;6.10;;;;;;;32.78;28.86;97470.16;5063783;28;20507;-69
2022/07/20 07:44:15;;;;;;;7.57;6.20;;;;;;;32.93;29.05;97473.81;5074137;28;20202;-70
2022/07/20 07:46:41;;;;;;;9.93;6.57;;;;;;;33.05;27.85;97470.66;5072590;28;20175;-70
2022/07/20 07:49:06;;;;;;;9.17;5.80;;;;;;;33.19;28.08;97476.97;5059009;28;20261;-70
2022/07/20 07:51:32;;;;;;;11.40;6.10;;;;;;;33.22;27.52;97470.94;5056431;28;20202;-71
2022/07/20 07:53:58;;;;;;;7.50;5.90;;;;;;;33.36;27.30;97465.59;5057435;28;20226;-70
2022/07/20 07:56:24;;;;;;;7.03;5.53;;;;;;;33.39;27.01;97469.66;5055804;28;21385;-70
2022/07/20 07:58:49;;;;;;;10.40;5.50;;;;;;;33.56;26.91;97458.25;5055661;28;20194;-69
2022/07/20 08:01:15;;;;;;;8.87;5.93;;;;;;;33.73;26.93;97459.59;5057275;28;20421;-70
2022/07/20 08:03:40;;;;;;;8.57;5.60;;;;;;;33.86;25.86;97461.53;5060353;28;20199;-71
2022/07/20 08:06:06;;;;;;;10.53;6.03;;;;;;;33.33;25.94;97463.44;5063836;28;20183;-70
2022/07/20 08:08:31;;;;;;;12.93;7.63;;;;;;;33.61;25.86;97470.94;5058361;28;20214;-70
2022/07/20 08:10:57;;;;;;;8.77;6.10;;;;;;;33.76;25.79;97476.13;5064443;28;20870;-70
2022/07/20 08:13:23;;;;;;;8.97;5.77;;;;;;;33.98;25.41;97463.81;5075868;28;20198;-70
2022/07/20 08:15:48;;;;;;;15.07;6.10;;;;;;;34.16;25.18;97459.41;5064638;28;20689;-70
2022/07/20 08:18:14;;;;;;;6.80;5.23;;;;;;;34.24;25.30;97455.97;5059612;28;20274;-69
2022/07/20 08:20:39;;;;;;;10.50;5.70;;;;;;;34.28;24.60;97464.31;5063668;28;20805;-71
2022/07/20 08:23:05;;;;;;;14.47;5.30;;;;;;;34.47;25.00;97468.91;5061242;28;20202;-70
2022/07/20 08:25:30;;;;;;;7.43;5.63;;;;;;;34.63;24.77;97461.22;5055310;28;20267;-69
2022/07/20 08:28:17;;;;;;;7.53;5.73;;;;;;;34.73;25.30;97461.84;5065371;28;20197;-71
2022/07/20 08:30:45;;;;;;;7.57;6.10;;;;;;;34.88;24.71;97462.63;5063031;28;20920;-70
2022/07/20 08:33:11;;;;;;;10.73;5.37;;;;;;;35.00;24.53;97468.38;5061081;28;20463;-69
2022/07/20 08:35:37;;;;;;;13.33;6.20;;;;;;;34.93;23.94;97467.16;5059855;28;20461;-70
2022/07/20 08:38:03;;;;;;;6.23;5.43;;;;;;;35.13;24.14;97468.63;5061867;28;20700;-70
2022/07/20 08:40:29;;;;;;;6.57;5.30;;;;;;;35.32;24.38;97469.25;5058887;28;20413;-70
2022/07/20 08:42:55;;;;;;;14.30;5.73;;;;;;;35.49;24.25;97470.53;5061118;28;20449;-71
2022/07/20 08:45:21;;;;;;;12.83;5.87;;;;;;;35.68;24.23;97459.44;5063931;28;20417;-71
2022/07/20 08:47:48;;;;;;;11.70;5.57;;;;;;;35.84;23.93;97465.31;5061946;28;20183;-70
2022/07/20 08:50:13;;;;;;;7.57;5.60;;;;;;;35.94;23.40;97467.00;5054277;28;20457;-70
2022/07/20 08:52:39;;;;;;;5.90;5.10;;;;;;;35.77;23.30;97471.19;5051729;28;20488;-71
2022/07/20 08:55:05;;;;;;;7.70;5.40;;;;;;;35.79;23.32;97462.72;5056459;28;20185;-69
2022/07/20 08:57:31;;;;;;;6.03;4.70;;;;;;;35.77;23.38;97467.69;5054000;28;20222;-70
2022/07/20 08:59:57;;;;;;;16.30;5.57;;;;;;;35.98;23.09;97474.25;5051085;28;20478;-70
2022/07/20 09:02:22;;;;;;;8.33;5.13;;;;;;;36.12;22.87;97470.63;5051161;28;20186;-70
2022/07/20 09:04:49;;;;;;;8.30;5.20;;;;;;;36.31;23.30;97469.56;5054653;28;20178;-70
2022/07/20 09:07:14;;;;;;;7.73;5.30;;;;;;;36.52;23.26;97473.38;5053944;28;20266;-70
2022/07/20 09:09:40;;;;;;;9.70;5.37;;;;;;;36.73;22.82;97472.75;5058603;28;20512;-69
2022/07/20 09:12:06;;;;;;;7.40;5.33;;;;;;;36.92;22.63;97479.91;5057513;28;20642;-70
2022/07/20 09:14:37;;;;;;;9.90;5.27;;;;;;;37.10;22.32;97475.25;5055347;28;20197;-69
2022/07/20 09:17:23;;;;;;;10.23;5.87;;;;;;;37.31;22.07;97469.94;5054761;28;20298;-70
2022/07/20 09:19:59;;;;;;;12.03;5.53;;;;;;;37.48;22.07;97469.97;5053583;28;20498;-71
2022/07/20 09:22:33;;;;;;;9.93;5.40;;;;;;;37.68;21.70;97461.41;5056328;28;20412;-70
2022/07/20 09:25:05;;;;;;;13.00;6.63;;;;;;;37.85;21.57;97461.38;5052985;28;20924;-70
2022/07/20 09:27:33;;;;;;;11.30;5.23;;;;;;;37.75;21.24;97467.16;5053076;28;20769;-70
2022/07/20 09:30:11;;;;;;;11.00;4.80;;;;;;;37.99;21.90;97466.66;5066152;28;20435;-70
2022/07/20 09:32:53;;;;;;;10.70;4.97;;;;;;;38.19;20.65;97470.63;5057631;28;20442;-69
2022/07/20 09:35:20;;;;;;;8.87;4.97;;;;;;;38.31;20.85;97472.66;5073290;28;20438;-69
2022/07/20 09:37:46;;;;;;;12.03;5.53;;;;;;;38.40;20.81;97465.25;5061898;28;20417;-70
2022/07/20 09:40:11;;;;;;;11.90;5.10;;;;;;;38.59;19.89;97466.75;5058161;28;20495;-71
2022/07/20 09:42:41;;;;;;;16.97;5.27;;;;;;;38.68;18.90;97467.50;5068443;28;21667;-69
2022/07/20 09:45:26;;;;;;;11.93;4.93;;;;;;;38.79;19.03;97475.34;5069199;28;20185;-71
2022/07/20 09:48:06;;;;;;;9.37;4.67;;;;;;;38.80;18.29;97460.50;5062439;28;20916;-71
2022/07/20 09:50:35;;;;;;;8.63;4.30;;;;;;;38.87;18.54;97466.28;5055043;28;20480;-69
2022/07/20 09:53:00;;;;;;;13.50;4.97;;;;;;;38.99;18.60;97460.88;5060280;28;20468;-72
2022/07/20 09:55:26;;;;;;;15.13;4.40;;;;;;;39.09;18.79;97454.19;5055810;28;20961;-70
2022/07/20 09:57:53;;;;;;;7.37;4.80;;;;;;;39.07;17.87;97461.16;5056036;28;20181;-71
2022/07/20 10:00:19;;;;;;;8.20;5.07;;;;;;;39.21;18.28;97453.44;5064312;28;20660;-71
2022/07/20 10:02:47;;;;;;;9.27;4.27;;;;;;;39.33;18.16;97453.53;5066628;28;20445;-72
2022/07/20 10:05:13;;;;;;;8.17;4.13;;;;;;;39.41;17.85;97456.53;5049524;28;20424;-70
2022/07/20 10:07:39;;;;;;;9.87;4.40;;;;;;;39.48;17.92;97460.34;5054150;28;20412;-71
2022/07/20 10:10:05;;;;;;;12.67;4.80;;;;;;;39.57;17.79;97459.44;5056925;28;20428;-70
2022/07/20 10:12:31;;;;;;;13.00;4.70;;;;;;;39.65;17.90;97458.53;5057205;28;20185;-70
2022/07/20 10:14:59;;;;;;;10.13;4.07;;;;;;;39.80;18.23;97445.34;5049327;28;20455;-71
2022/07/20 10:17:24;;;;;;;10.90;4.50;;;;;;;39.83;17.90;97450.94;5051380;28;20463;-71
2022/07/20 10:19:49;;;;;;;16.93;5.30;;;;;;;39.88;18.32;97448.00;5050870;28;20459;-72
2022/07/20 10:22:15;;;;;;;13.33;4.90;;;;;;;40.00;17.98;97449.16;5054830;28;20186;-71
2022/07/20 10:24:43;;;;;;;6.47;4.57;;;;;;;40.08;17.60;97443.56;5052185;28;20685;-70
2022/07/20 10:27:08;;;;;;;10.63;4.67;;;;;;;40.12;17.59;97445.63;5050581;28;20166;-70
2022/07/20 10:29:35;;;;;;;16.87;5.10;;;;;;;40.17;17.56;97443.50;5051611;28;20409;-71
2022/07/20 10:32:10;;;;;;;9.50;5.57;;;;;;;40.22;17.42;97456.19;5054865;28;20308;-71
2022/07/20 10:34:52;;;;;;;11.57;4.53;;;;;;;40.34;17.57;97452.63;5052241;28;20222;-71
2022/07/20 10:37:21;;;;;;;8.43;4.00;;;;;;;40.49;16.99;97453.91;5053954;28;20268;-70
2022/07/20 10:39:47;;;;;;;12.80;4.40;;;;;;;40.62;17.25;97447.28;5058729;28;20491;-72
2022/07/20 10:42:30;;;;;;;9.17;3.77;;;;;;;40.61;17.27;97450.31;5069702;28;20445;-70
2022/07/20 10:45:19;;;;;;;9.03;4.17;;;;;;;40.58;17.23;97459.28;5068746;28;20503;-72
2022/07/20 10:47:44;;;;;;;10.40;4.38;;;;;;;40.64;17.12;97452.41;5073614;28;20423;-72
2022/07/20 10:50:36;;;;;;;14.33;4.70;;;;;;;40.62;17.45;97441.78;5059568;28;20191;-71
2022/07/20 10:53:10;;;;;;;10.57;4.70;;;;;;;40.66;17.41;97447.38;5072441;28;20198;-71
2022/07/20 10:55:42;;;;;;;7.27;4.43;;;;;;;40.74;17.47;97449.19;5058488;28;20418;-71
2022/07/20 10:58:10;;;;;;;11.40;4.20;;;;;;;40.80;17.56;97453.31;5066673;28;20283;-70
2022/07/20 11:00:46;;;;;;;10.30;4.03;;;;;;;40.91;17.46;97444.59;5066891;28;20800;-72
2022/07/20 11:03:27;;;;;;;6.33;3.80;;;;;;;41.00;17.76;97454.28;5061858;28;20202;-72
2022/07/20 11:06:05;;;;;;;6.47;4.03;;;;;;;41.14;17.78;97453.13;5059510;28;20256;-69
2022/07/20 11:08:31;;;;;;;9.70;4.17;;;;;;;41.17;17.42;97465.38;5060612;28;20193;-70
2022/07/20 11:10:56;;;;;;;8.95;4.50;;;;;;;41.14;16.36;97451.19;5070181;28;20182;-70
2022/07/20 11:13:23;;;;;;;8.40;4.00;;;;;;;40.96;16.86;97455.31;5074218;28;20209;-69
2022/07/20 11:15:50;;;;;;;10.15;4.03;;;;;;;40.95;17.38;97454.53;5067149;28;20205;-69
2022/07/20 11:18:19;;;;;;;5.80;5.20;;;;;;;41.05;17.17;97447.75;5068106;28;20182;-69
2022/07/20 11:21:08;;;;;;;9.93;4.82;;;;;;;41.05;17.34;97453.25;5070380;28;20448;-70
2022/07/20 11:23:48;;;;;;;11.38;4.30;;;;;;;41.09;17.29;97445.13;5063752;28;20202;-68
2022/07/20 11:26:18;;;;;;;9.97;4.40;;;;;;;41.12;17.13;97441.69;5067352;28;20185;-69
2022/07/20 11:28:47;;;;;;;9.80;4.03;;;;;;;41.20;16.89;97438.00;5070548;28;20190;-69
2022/07/20 11:31:13;;;;;;;4.57;3.87;;;;;;;41.21;16.78;97434.09;5068363;28;20551;-68